Time;durP1;ratioP1;P1;durP2;ratioP2;P2;SDS_P1;SDS_P2;PMS_P1;PMS_P2;Temp;Humidity;BMP_temperature;BMP_pressure;BME280_temperature;BME280_humidity;BME280_pressure;Samples;Min_cycle;Max_cycle;Signal;HPM_P1;HPM_P2
2023/10/04 00:00:21;;;;;;;9.90;2.70;;;12.80;99.90;;;;;;5045194;28;20030;-73
2023/10/04 00:02:49;;;;;;;9.98;2.55;;;12.80;99.90;;;;;;5044823;28;20025;-75
2023/10/04 00:05:21;;;;;;;10.52;2.42;;;12.80;99.90;;;;;;5027074;28;20093;-76
2023/10/04 00:07:48;;;;;;;11.23;3.00;;;12.80;99.90;;;;;;5044888;28;20033;-74
2023/10/04 00:10:17;;;;;;;6.93;2.50;;;12.80;99.90;;;;;;5044674;28;20405;-74
2023/10/04 00:12:45;;;;;;;12.38;2.92;;;12.80;99.90;;;;;;5026534;28;20041;-69
2023/10/04 00:15:14;;;;;;;13.20;2.83;;;12.80;99.90;;;;;;5044930;28;20033;-74
2023/10/04 00:17:42;;;;;;;13.48;2.60;;;12.80;99.90;;;;;;5044585;28;20129;-74
2023/10/04 00:20:17;;;;;;;16.52;2.83;;;12.80;99.90;;;;;;5044349;28;20025;-74
2023/10/04 00:22:46;;;;;;;8.05;2.60;;;12.80;99.90;;;;;;5044511;28;20033;-74
2023/10/04 00:25:16;;;;;;;11.25;2.97;;;12.90;99.90;;;;;;5023448;28;20029;-73
2023/10/04 00:27:43;;;;;;;7.53;3.00;;;12.90;99.90;;;;;;5042228;28;20032;-77
2023/10/04 00:30:14;;;;;;;12.40;2.88;;;12.80;99.90;;;;;;5023480;28;20049;-74
2023/10/04 00:32:39;;;;;;;13.23;3.30;;;12.80;99.90;;;;;;5041520;28;20029;-73
2023/10/04 00:35:12;;;;;;;13.52;3.55;;;12.70;99.90;;;;;;5044172;28;20060;-73
2023/10/04 00:37:42;;;;;;;11.25;3.15;;;12.80;99.90;;;;;;5044024;28;20029;-73
2023/10/04 00:40:12;;;;;;;13.30;2.83;;;12.80;99.90;;;;;;5044146;28;20025;-73
2023/10/04 00:42:38;;;;;;;17.50;3.10;;;12.80;99.90;;;;;;5044247;28;20028;-73
2023/10/04 00:45:05;;;;;;;7.00;2.78;;;12.80;99.90;;;;;;5026526;28;20029;-72
2023/10/04 00:47:32;;;;;;;10.93;3.17;;;12.80;99.90;;;;;;5043641;28;20482;-73
2023/10/04 00:50:04;;;;;;;8.98;2.65;;;12.80;99.90;;;;;;5044055;28;20041;-76
2023/10/04 00:52:30;;;;;;;14.55;3.03;;;12.80;99.90;;;;;;5043977;28;20038;-74
2023/10/04 00:54:56;;;;;;;10.15;3.35;;;12.80;99.90;;;;;;5044173;28;20029;-73
2023/10/04 00:57:21;;;;;;;16.30;3.50;;;12.70;99.90;;;;;;5023176;28;20026;-74
2023/10/04 00:59:47;;;;;;;13.55;2.95;;;12.70;99.90;;;;;;5042462;28;20025;-73
2023/10/04 01:02:13;;;;;;;10.10;2.83;;;12.70;99.90;;;;;;5043931;28;20032;-75
2023/10/04 01:04:39;;;;;;;9.85;2.90;;;12.70;99.90;;;;;;5043807;28;20033;-74
2023/10/04 01:07:04;;;;;;;12.32;2.85;;;12.70;99.90;;;;;;5022536;28;20022;-75
2023/10/04 01:09:31;;;;;;;9.18;2.80;;;12.70;99.90;;;;;;5022192;28;20034;-75
2023/10/04 01:11:58;;;;;;;11.73;2.55;;;12.70;99.90;;;;;;5043908;28;20031;-76
2023/10/04 01:14:32;;;;;;;13.02;3.67;;;12.70;99.90;;;;;;5043666;28;20021;-76
2023/10/04 01:16:58;;;;;;;;;;;12.70;99.90;;;;;;5023254;28;20394;-73
2023/10/04 01:19:25;;;;;;;14.57;3.75;;;12.70;99.90;;;;;;5021671;28;19905;-73
2023/10/04 01:21:51;;;;;;;13.77;2.80;;;12.60;99.90;;;;;;5043216;28;20057;-75
2023/10/04 01:24:17;;;;;;;8.70;2.60;;;12.70;99.90;;;;;;5044008;28;20036;-74
2023/10/04 01:26:43;;;;;;;11.43;2.50;;;12.60;99.90;;;;;;5023728;28;20064;-74
2023/10/04 01:29:11;;;;;;;12.05;3.13;;;12.60;99.90;;;;;;5022457;28;20113;-74
2023/10/04 01:31:37;;;;;;;17.33;2.88;;;12.60;99.90;;;;;;5023260;28;20025;-73
2023/10/04 01:34:04;;;;;;;16.85;3.05;;;12.60;99.90;;;;;;5043614;28;20458;-72
2023/10/04 01:36:33;;;;;;;10.98;2.47;;;12.60;99.90;;;;;;5022262;28;20061;-76
2023/10/04 01:38:59;;;;;;;7.45;2.28;;;12.60;99.90;;;;;;5035707;28;20029;-72
2023/10/04 01:41:25;;;;;;;10.35;2.65;;;12.50;99.90;;;;;;5043163;28;20029;-75
2023/10/04 01:43:53;;;;;;;10.95;2.75;;;12.50;99.90;;;;;;5043800;28;20036;-77
2023/10/04 01:46:19;;;;;;;8.38;3.08;;;12.60;99.90;;;;;;5043021;28;20026;-75
2023/10/04 01:48:44;;;;;;;10.07;2.83;;;12.50;99.90;;;;;;5025450;28;20041;-71
2023/10/04 01:51:12;;;;;;;7.60;2.90;;;12.50;99.90;;;;;;5043522;28;20041;-74
2023/10/04 01:53:39;;;;;;;10.55;2.83;;;12.50;99.90;;;;;;5025501;28;20049;-73
2023/10/04 01:56:06;;;;;;;10.20;2.83;;;12.50;99.90;;;;;;5043217;28;20041;-73
2023/10/04 01:58:31;;;;;;;9.35;2.40;;;12.50;99.90;;;;;;5043154;28;20075;-77
2023/10/04 02:00:57;;;;;;;9.57;2.60;;;12.50;99.90;;;;;;5025537;28;20826;-76
2023/10/04 02:03:24;;;;;;;11.85;2.90;;;12.50;99.90;;;;;;5018476;28;20033;-78
2023/10/04 02:05:56;;;;;;;5.47;2.22;;;12.50;99.90;;;;;;5042815;28;20036;-75
2023/10/04 02:08:22;;;;;;;10.30;2.92;;;12.50;99.90;;;;;;5043707;28;20385;-73
2023/10/04 02:10:50;;;;;;;14.43;2.80;;;12.40;99.90;;;;;;5043328;28;20084;-76
2023/10/04 02:13:16;;;;;;;10.85;2.53;;;12.50;99.90;;;;;;5043324;28;20056;-76
2023/10/04 02:15:53;;;;;;;15.48;2.83;;;12.50;99.90;;;;;;5045727;28;20030;-74
2023/10/04 02:18:19;;;;;;;15.52;2.80;;;12.50;99.90;;;;;;5047039;28;20034;-73
2023/10/04 02:20:50;;;;;;;14.48;2.47;;;12.60;99.90;;;;;;5029273;28;20030;-71
2023/10/04 02:23:16;;;;;;;10.10;2.40;;;12.60;99.90;;;;;;5029224;28;20029;-76
2023/10/04 02:25:42;;;;;;;10.70;2.90;;;12.60;99.90;;;;;;5046442;28;20076;-79
2023/10/04 02:28:11;;;;;;;12.85;2.55;;;12.50;99.90;;;;;;5046524;28;20029;-75
2023/10/04 02:30:40;;;;;;;14.18;3.00;;;12.60;99.90;;;;;;5046241;28;20026;-76
2023/10/04 02:33:14;;;;;;;13.43;2.85;;;12.60;99.90;;;;;;5046746;28;20045;-77
2023/10/04 02:35:48;;;;;;;7.55;2.10;;;12.60;99.90;;;;;;5046510;28;20085;-74
2023/10/04 02:38:19;;;;;;;12.63;2.60;;;12.60;99.90;;;;;;5046350;28;20042;-75
2023/10/04 02:40:46;;;;;;;12.80;2.90;;;12.60;99.90;;;;;;5046030;28;20017;-73
2023/10/04 02:43:15;;;;;;;11.35;2.92;;;12.60;99.90;;;;;;5046576;28;20057;-74
2023/10/04 02:45:41;;;;;;;15.45;2.90;;;12.60;99.90;;;;;;5046133;28;20578;-75
2023/10/04 02:48:10;;;;;;;10.43;2.42;;;12.60;99.90;;;;;;5046202;28;20100;-76
2023/10/04 02:50:37;;;;;;;17.33;2.58;;;12.50;99.90;;;;;;5028274;28;20386;-77
2023/10/04 02:53:03;;;;;;;10.55;2.78;;;12.50;99.90;;;;;;5046202;28;20041;-74
2023/10/04 02:55:31;;;;;;;12.77;2.47;;;12.60;99.90;;;;;;5046701;28;20029;-74
2023/10/04 02:57:59;;;;;;;8.20;2.30;;;12.50;99.90;;;;;;5045524;28;20026;-75
2023/10/04 03:00:25;;;;;;;12.82;2.70;;;12.60;99.90;;;;;;5028656;28;20018;-76
2023/10/04 03:02:53;;;;;;;14.35;3.13;;;12.60;99.90;;;;;;5027931;28;20076;-76
2023/10/04 03:05:19;;;;;;;13.07;2.60;;;12.60;99.90;;;;;;5045778;28;20026;-75
2023/10/04 03:07:47;;;;;;;16.17;2.75;;;12.50;99.90;;;;;;5028043;28;20029;-72
2023/10/04 03:10:14;;;;;;;9.68;2.50;;;12.60;99.90;;;;;;5046191;28;20024;-74
2023/10/04 03:12:41;;;;;;;15.20;2.67;;;12.60;99.90;;;;;;5045276;28;20080;-76
2023/10/04 03:15:07;;;;;;;11.30;2.58;;;12.50;99.90;;;;;;5028021;28;20025;-75
2023/10/04 03:17:33;;;;;;;11.23;2.72;;;12.50;99.90;;;;;;5045891;28;20036;-74
2023/10/04 03:20:00;;;;;;;14.70;2.50;;;12.50;99.90;;;;;;5045328;28;20458;-79
2023/10/04 03:22:26;;;;;;;13.23;3.28;;;12.50;99.90;;;;;;5045885;28;20025;-75
2023/10/04 03:24:53;;;;;;;9.48;2.58;;;12.50;99.90;;;;;;5045656;28;20064;-76
2023/10/04 03:27:21;;;;;;;16.67;2.95;;;12.50;99.90;;;;;;5026661;28;20405;-73
2023/10/04 03:29:52;;;;;;;13.60;2.63;;;12.50;99.90;;;;;;5045648;28;20421;-73
2023/10/04 03:32:18;;;;;;;11.23;2.55;;;12.50;99.90;;;;;;5027717;28;20037;-72
2023/10/04 03:34:44;;;;;;;13.13;2.75;;;12.50;99.90;;;;;;5044875;28;20053;-74
2023/10/04 03:37:13;;;;;;;8.40;2.90;;;12.50;99.90;;;;;;5045508;28;20060;-75
2023/10/04 03:39:40;;;;;;;12.98;2.35;;;12.50;99.90;;;;;;5045140;28;20017;-73
2023/10/04 03:42:05;;;;;;;10.75;2.50;;;12.50;99.90;;;;;;5045345;28;20087;-74
2023/10/04 03:44:31;;;;;;;16.98;2.70;;;12.50;99.90;;;;;;5027546;28;20030;-72
2023/10/04 03:46:57;;;;;;;15.70;2.70;;;12.40;99.90;;;;;;5023089;28;20049;-73
2023/10/04 03:49:24;;;;;;;14.77;2.88;;;12.40;99.90;;;;;;5039372;28;20030;-75
2023/10/04 03:51:53;;;;;;;10.38;2.45;;;12.40;99.90;;;;;;5044487;28;20031;-77
2023/10/04 03:54:19;;;;;;;14.80;2.72;;;12.50;99.90;;;;;;5022881;28;20037;-74
2023/10/04 03:56:45;;;;;;;15.80;2.42;;;12.40;99.90;;;;;;5042575;28;20029;-74
2023/10/04 03:59:11;;;;;;;13.88;2.90;;;12.40;99.90;;;;;;5026533;28;20037;-73
2023/10/04 04:01:37;;;;;;;13.30;2.90;;;12.40;99.90;;;;;;5043354;28;20026;-78
2023/10/04 04:04:04;;;;;;;11.50;2.83;;;12.40;99.90;;;;;;5026349;28;20034;-75
2023/10/04 04:06:30;;;;;;;16.92;3.97;;;12.40;99.90;;;;;;5043817;28;20036;-79
2023/10/04 04:08:58;;;;;;;21.45;3.03;;;12.40;99.90;;;;;;5043010;28;20030;-74
2023/10/04 04:11:24;;;;;;;13.13;2.28;;;12.40;99.90;;;;;;5026495;28;20032;-74
2023/10/04 04:13:49;;;;;;;13.60;2.80;;;12.40;99.90;;;;;;5044033;28;20037;-74
2023/10/04 04:16:17;;;;;;;10.68;2.40;;;12.30;99.90;;;;;;5044059;28;20029;-73
2023/10/04 04:18:44;;;;;;;13.80;2.60;;;12.40;99.90;;;;;;5043847;28;20049;-72
2023/10/04 04:21:10;;;;;;;10.38;2.50;;;12.40;99.90;;;;;;5025751;28;20025;-74
2023/10/04 04:23:36;;;;;;;14.13;2.90;;;12.40;99.90;;;;;;5043691;28;20033;-74
2023/10/04 04:26:05;;;;;;;13.55;2.90;;;12.40;99.90;;;;;;5043495;28;20028;-71
2023/10/04 04:28:34;;;;;;;15.85;3.00;;;12.40;99.90;;;;;;5043585;28;20112;-73
2023/10/04 04:31:05;;;;;;;11.48;2.83;;;12.40;99.90;;;;;;5043712;28;20026;-74
2023/10/04 04:33:30;;;;;;;14.55;3.72;;;12.40;99.90;;;;;;5043440;28;20037;-71
2023/10/04 04:36:08;;;;;;;12.10;2.63;;;12.30;99.90;;;;;;5025362;28;20030;-74
2023/10/04 04:38:38;;;;;;;10.55;2.45;;;12.40;99.90;;;;;;5042941;28;20026;-74
2023/10/04 04:41:11;;;;;;;11.68;2.47;;;12.30;99.90;;;;;;5043383;28;20036;-73
2023/10/04 04:43:37;;;;;;;10.95;2.67;;;12.30;99.90;;;;;;5043057;28;20021;-74
2023/10/04 04:46:09;;;;;;;9.43;2.53;;;12.30;99.90;;;;;;5043620;28;20041;-73
2023/10/04 04:48:36;;;;;;;14.40;2.90;;;12.30;99.90;;;;;;5005315;28;1092266;-71
2023/10/04 04:51:12;;;;;;;6.30;2.20;;;12.30;99.90;;;;;;5043643;28;20046;-72
2023/10/04 04:53:42;;;;;;;9.52;2.60;;;12.30;99.90;;;;;;5044110;28;20061;-71
2023/10/04 04:56:12;;;;;;;20.10;2.70;;;12.30;99.90;;;;;;5025492;28;20420;-75
2023/10/04 04:58:39;;;;;;;17.55;2.83;;;12.20;99.90;;;;;;5043063;28;20034;-76
2023/10/04 05:01:08;;;;;;;15.98;3.33;;;12.20;99.90;;;;;;5029097;28;20079;-73
2023/10/04 05:03:34;;;;;;;16.42;2.33;;;12.20;99.90;;;;;;5029142;28;20465;-73
2023/10/04 05:06:00;;;;;;;11.35;2.40;;;12.20;99.90;;;;;;5043966;28;20037;-75
2023/10/04 05:08:26;;;;;;;11.80;2.75;;;12.30;99.90;;;;;;5043603;28;20041;-75
2023/10/04 05:10:54;;;;;;;18.02;3.30;;;12.20;99.90;;;;;;5025801;28;20116;-74
2023/10/04 05:13:20;;;;;;;13.27;2.90;;;12.20;99.90;;;;;;5026519;28;20045;-73
2023/10/04 05:15:47;;;;;;;20.80;3.85;;;12.20;99.90;;;;;;5044145;28;20029;-74
2023/10/04 05:18:17;;;;;;;11.52;2.75;;;12.20;99.90;;;;;;5040622;28;20017;-75
2023/10/04 05:20:52;;;;;;;12.23;3.15;;;12.20;99.90;;;;;;5042585;28;20022;-79
2023/10/04 05:23:20;;;;;;;13.25;3.70;;;12.20;99.90;;;;;;5044010;28;20436;-76
2023/10/04 05:25:46;;;;;;;17.52;2.60;;;12.10;99.90;;;;;;5025446;28;20029;-77
2023/10/04 05:28:12;;;;;;;10.70;2.78;;;12.10;99.90;;;;;;5042893;28;20030;-74
2023/10/04 05:30:41;;;;;;;12.52;2.58;;;12.10;99.90;;;;;;5028218;28;20029;-77
2023/10/04 05:33:08;;;;;;;14.35;2.50;;;12.10;99.90;;;;;;5043511;28;20033;-76
2023/10/04 05:35:41;;;;;;;15.88;2.88;;;12.20;99.90;;;;;;5043301;28;20030;-79
2023/10/04 05:38:07;;;;;;;12.23;2.90;;;12.10;99.90;;;;;;5025680;28;20036;-80
2023/10/04 05:40:35;;;;;;;18.30;3.13;;;12.20;99.90;;;;;;5025418;28;20381;-78
2023/10/04 05:43:03;;;;;;;11.90;2.90;;;12.10;99.90;;;;;;5018173;28;20091;-76
2023/10/04 05:45:28;;;;;;;20.08;2.47;;;12.10;99.90;;;;;;5041678;28;20030;-81
2023/10/04 05:47:55;;;;;;;9.55;2.90;;;12.10;99.90;;;;;;5052347;28;20056;-77
2023/10/04 05:50:22;;;;;;;12.63;3.13;;;12.10;99.90;;;;;;5045705;28;20033;-81
2023/10/04 05:52:52;;;;;;;13.32;2.83;;;12.10;99.90;;;;;;5029424;28;20136;-80
2023/10/04 05:55:19;;;;;;;13.63;2.83;;;12.10;99.90;;;;;;5029676;28;20064;-77
2023/10/04 05:57:46;;;;;;;10.05;2.50;;;12.20;99.90;;;;;;5047284;28;20037;-81
2023/10/04 06:00:33;;;;;;;10.07;2.55;;;12.10;99.90;;;;;;5029313;28;20035;-80
2023/10/04 06:03:00;;;;;;;16.70;3.20;;;12.10;99.90;;;;;;5046881;28;20022;-76
2023/10/04 06:05:27;;;;;;;10.73;2.95;;;12.10;99.90;;;;;;5046970;28;20451;-78
2023/10/04 06:07:55;;;;;;;11.15;2.72;;;12.20;99.90;;;;;;5046715;28;20044;-75
2023/10/04 06:10:22;;;;;;;13.73;3.35;;;12.20;99.90;;;;;;5029828;28;20378;-74
2023/10/04 06:12:48;;;;;;;12.98;2.63;;;12.20;99.90;;;;;;5047184;28;20041;-77
2023/10/04 06:15:17;;;;;;;16.10;3.17;;;12.20;99.90;;;;;;5029113;28;20026;-79
2023/10/04 06:17:45;;;;;;;12.05;3.15;;;12.20;99.90;;;;;;5046737;28;20106;-78
2023/10/04 06:22:59;;;;;;;13.45;2.90;;;12.20;99.90;;;;;;5045845;28;20034;-83
2023/10/04 06:25:26;;;;;;;11.63;2.97;;;12.20;99.90;;;;;;5028512;28;20037;-74
2023/10/04 06:27:54;;;;;;;11.68;2.88;;;12.20;99.90;;;;;;5045856;28;20060;-74
2023/10/04 06:30:23;;;;;;;11.82;3.15;;;12.30;99.90;;;;;;5033725;28;20030;-77
2023/10/04 06:32:52;;;;;;;12.82;3.17;;;12.30;99.90;;;;;;5045306;28;20065;-78
2023/10/04 06:35:22;;;;;;;14.95;3.22;;;12.30;99.90;;;;;;5046461;28;20025;-74
2023/10/04 06:37:49;;;;;;;14.70;2.83;;;12.30;99.90;;;;;;5028465;28;20046;-77
2023/10/04 06:40:19;;;;;;;16.05;3.05;;;12.30;99.90;;;;;;5046269;28;20033;-77
2023/10/04 06:42:46;;;;;;;20.63;3.40;;;12.30;99.90;;;;;;5046168;28;20032;-78
2023/10/04 06:45:16;;;;;;;18.02;3.15;;;12.30;99.90;;;;;;5046509;28;20033;-77
2023/10/04 06:47:44;;;;;;;19.55;3.65;;;12.40;99.90;;;;;;5028008;28;20045;-76
2023/10/04 06:50:13;;;;;;;16.00;3.10;;;12.50;99.90;;;;;;5028276;28;20025;-75
2023/10/04 06:52:42;;;;;;;12.90;2.92;;;12.40;99.90;;;;;;5046192;28;20040;-72
2023/10/04 06:55:11;;;;;;;14.20;3.00;;;12.40;99.90;;;;;;5046354;28;20036;-78
2023/10/04 06:57:39;;;;;;;8.95;2.90;;;12.50;99.90;;;;;;5045898;28;20064;-77
2023/10/04 07:00:15;;;;;;;17.13;2.95;;;12.60;99.90;;;;;;5045932;28;20116;-77
2023/10/04 07:02:43;;;;;;;12.15;2.90;;;12.60;99.90;;;;;;5045972;28;20085;-82
2023/10/04 07:05:17;;;;;;;16.95;3.30;;;12.70;99.90;;;;;;5024819;28;20030;-79
2023/10/04 07:07:44;;;;;;;15.02;3.22;;;12.70;99.90;;;;;;5043898;28;20082;-76
2023/10/04 07:10:14;;;;;;;20.23;3.60;;;12.70;99.90;;;;;;5046101;28;20057;-82
2023/10/04 07:12:40;;;;;;;18.42;3.17;;;12.70;99.90;;;;;;5027314;28;20053;-76
2023/10/04 07:15:07;;;;;;;10.60;3.17;;;12.80;99.90;;;;;;5046073;28;20021;-78
2023/10/04 07:17:33;;;;;;;13.07;3.47;;;12.90;99.90;;;;;;5045804;28;20025;-80
2023/10/04 07:19:59;;;;;;;13.32;3.38;;;12.90;99.90;;;;;;5027547;28;20029;-74
2023/10/04 07:22:29;;;;;;;15.40;3.58;;;12.90;99.90;;;;;;5045019;28;20029;-78
2023/10/04 07:24:59;;;;;;;14.05;3.13;;;13.00;99.90;;;;;;5027735;28;20452;-74
2023/10/04 07:27:25;;;;;;;11.80;2.72;;;13.10;99.90;;;;;;5028109;28;20037;-77
2023/10/04 07:29:53;;;;;;;11.10;2.85;;;13.20;99.90;;;;;;5045635;28;20120;-77
2023/10/04 07:32:19;;;;;;;15.57;3.17;;;13.20;99.90;;;;;;5044318;28;20032;-75
2023/10/04 07:34:45;;;;;;;12.82;2.88;;;13.20;99.90;;;;;;5027687;28;20049;-74
2023/10/04 07:37:11;;;;;;;18.20;3.45;;;13.30;99.90;;;;;;5045482;28;20025;-77
2023/10/04 07:39:37;;;;;;;11.98;2.92;;;13.40;99.90;;;;;;5027364;28;20045;-78
2023/10/04 07:42:03;;;;;;;14.27;3.65;;;13.50;99.90;;;;;;5045706;28;20057;-75
2023/10/04 07:44:31;;;;;;;11.02;2.67;;;13.60;99.90;;;;;;5027107;28;20093;-78
2023/10/04 07:47:00;;;;;;;12.13;2.95;;;13.70;99.90;;;;;;5044704;28;20049;-80
2023/10/04 07:49:26;;;;;;;14.15;2.80;;;13.80;99.90;;;;;;5027899;28;20123;-76
2023/10/04 07:51:52;;;;;;;12.95;2.90;;;13.90;99.90;;;;;;5026043;28;20044;-76
2023/10/04 07:54:19;;;;;;;13.45;2.80;;;14.10;99.90;;;;;;5027060;28;20494;-78
2023/10/04 07:56:45;;;;;;;12.55;3.08;;;14.20;99.90;;;;;;5021955;28;20021;-81
2023/10/04 07:59:11;;;;;;;8.48;2.58;;;14.20;99.90;;;;;;5029756;28;20029;-77
2023/10/04 08:01:39;;;;;;;11.00;3.63;;;14.30;99.90;;;;;;5026253;28;20047;-75
2023/10/04 08:04:07;;;;;;;15.85;3.42;;;14.30;99.90;;;;;;5030010;28;20021;-80
2023/10/04 08:06:35;;;;;;;10.52;3.40;;;14.40;99.90;;;;;;5026277;28;20072;-73
2023/10/04 08:09:04;;;;;;;10.85;2.60;;;14.50;99.90;;;;;;5036804;28;20034;-76
2023/10/04 08:11:35;;;;;;;13.75;3.22;;;14.60;99.90;;;;;;5031082;28;20038;-79
2023/10/04 08:14:07;;;;;;;14.18;2.88;;;14.60;99.90;;;;;;5013221;28;20041;-78
2023/10/04 08:16:35;;;;;;;18.02;2.92;;;14.60;99.90;;;;;;5040356;28;20021;-76
2023/10/04 08:19:03;;;;;;;12.18;3.03;;;14.60;99.90;;;;;;5045027;28;20084;-71
2023/10/04 08:21:29;;;;;;;14.85;3.38;;;14.50;99.90;;;;;;5027313;28;20061;-79
2023/10/04 08:23:55;;;;;;;10.25;2.97;;;14.50;99.90;;;;;;5045056;28;20056;-77
2023/10/04 08:26:22;;;;;;;17.75;2.90;;;14.50;99.90;;;;;;5032600;28;20064;-75
2023/10/04 08:28:48;;;;;;;16.75;3.20;;;14.60;99.90;;;;;;5045163;28;20091;-75
2023/10/04 08:31:16;;;;;;;10.25;2.83;;;14.70;99.90;;;;;;5045149;28;20678;-77
2023/10/04 08:33:43;;;;;;;14.38;3.10;;;14.80;99.90;;;;;;5045112;28;20531;-73
2023/10/04 08:36:14;;;;;;;16.90;3.47;;;14.90;99.90;;;;;;5045458;28;20041;-75
2023/10/04 08:38:41;;;;;;;12.75;3.13;;;14.90;99.90;;;;;;5042227;28;20018;-75
2023/10/04 08:41:07;;;;;;;13.55;3.20;;;14.90;99.90;;;;;;5018170;28;20033;-76
2023/10/04 08:43:32;;;;;;;14.18;3.00;;;15.00;99.90;;;;;;5022468;28;20025;-81
2023/10/04 08:45:58;;;;;;;18.23;3.47;;;15.10;99.90;;;;;;5040568;28;20390;-77
2023/10/04 08:48:29;;;;;;;18.55;3.70;;;15.20;99.90;;;;;;5011117;28;20050;-75
2023/10/04 08:51:08;;;;;;;10.65;2.85;;;15.30;99.90;;;;;;5042867;28;20028;-76
2023/10/04 08:53:40;;;;;;;12.40;3.10;;;15.30;99.90;;;;;;5029894;28;20048;-71
2023/10/04 08:56:10;;;;;;;15.48;3.30;;;15.40;99.90;;;;;;5025405;28;20023;-73
2023/10/04 08:58:36;;;;;;;19.85;3.92;;;15.50;99.90;;;;;;5048356;28;20017;-73
2023/10/04 09:01:06;;;;;;;14.18;3.10;;;15.50;99.90;;;;;;5052213;28;20025;-75
2023/10/04 09:03:33;;;;;;;18.70;4.00;;;15.60;99.90;;;;;;5044451;28;20036;-71
2023/10/04 09:05:59;;;;;;;13.10;3.58;;;15.60;99.90;;;;;;5037560;28;20022;-81
2023/10/04 09:08:25;;;;;;;12.20;3.53;;;15.60;99.90;;;;;;5040834;28;20045;-71
2023/10/04 09:10:55;;;;;;;16.00;3.70;;;15.60;99.90;;;;;;5044009;28;20048;-72
2023/10/04 09:13:22;;;;;;;15.20;3.35;;;15.60;99.90;;;;;;5044145;28;20049;-74
2023/10/04 09:15:48;;;;;;;14.98;3.47;;;15.70;99.90;;;;;;5043329;28;20029;-73
2023/10/04 09:18:27;;;;;;;17.13;3.67;;;15.70;99.90;;;;;;5043776;28;20037;-74
2023/10/04 09:20:52;;;;;;;24.90;3.75;;;15.80;99.90;;;;;;5026376;28;20025;-75
2023/10/04 09:23:22;;;;;;;17.23;3.55;;;15.90;99.90;;;;;;5037183;28;20060;-74
2023/10/04 09:25:48;;;;;;;16.05;3.90;;;16.00;99.90;;;;;;5042452;28;20120;-78
2023/10/04 09:28:14;;;;;;;13.07;3.00;;;16.10;99.90;;;;;;5048364;28;20504;-73
2023/10/04 09:30:40;;;;;;;17.85;3.38;;;16.20;99.90;;;;;;5043937;28;20025;-75
2023/10/04 09:33:32;;;;;;;16.15;3.80;;;16.20;99.90;;;;;;5025246;28;20052;-70
2023/10/04 09:35:58;;;;;;;18.17;3.85;;;16.30;99.90;;;;;;5035733;28;20044;-76
2023/10/04 09:38:29;;;;;;;19.13;3.50;;;16.30;99.90;;;;;;5044747;28;20530;-72
2023/10/04 09:40:59;;;;;;;15.32;4.05;;;16.40;99.90;;;;;;5027795;28;20026;-72
2023/10/04 09:43:36;;;;;;;13.38;3.30;;;16.40;99.90;;;;;;5042708;28;20108;-74
2023/10/04 09:46:10;;;;;;;16.45;3.83;;;16.50;99.90;;;;;;5041705;28;20052;-70
2023/10/04 09:48:37;;;;;;;15.38;3.67;;;16.60;99.90;;;;;;5043070;28;20057;-74
2023/10/04 09:51:06;;;;;;;14.85;4.40;;;16.50;99.90;;;;;;5043757;28;20109;-74
2023/10/04 09:53:34;;;;;;;14.70;3.40;;;16.50;99.90;;;;;;5042917;28;20030;-73
2023/10/04 09:56:01;;;;;;;14.48;3.95;;;16.50;99.90;;;;;;5025901;28;20041;-72
2023/10/04 09:58:45;;;;;;;15.55;4.18;;;16.60;99.90;;;;;;5025697;28;20026;-74
2023/10/04 10:01:12;;;;;;;12.43;3.42;;;16.70;99.90;;;;;;5043260;28;20029;-73
2023/10/04 10:03:50;;;;;;;17.00;3.70;;;16.70;99.90;;;;;;5043166;28;20029;-76
2023/10/04 10:06:21;;;;;;;19.67;3.90;;;16.90;99.90;;;;;;5025634;28;20025;-74
2023/10/04 10:08:52;;;;;;;20.40;4.13;;;16.90;99.90;;;;;;5024290;28;20103;-74
2023/10/04 10:11:22;;;;;;;14.90;4.05;;;17.00;99.90;;;;;;5022259;28;20079;-78
2023/10/04 10:13:49;;;;;;;13.90;3.90;;;17.00;99.90;;;;;;5023792;28;20041;-74
2023/10/04 10:16:18;;;;;;;16.60;4.20;;;17.00;99.90;;;;;;5043275;28;20021;-78
2023/10/04 10:18:45;;;;;;;14.48;3.55;;;17.00;99.90;;;;;;5043081;28;20361;-79
2023/10/04 10:21:11;;;;;;;11.65;3.50;;;17.00;99.90;;;;;;5027339;28;20037;-77
2023/10/04 10:24:02;;;;;;;12.23;3.63;;;17.10;99.90;;;;;;5025231;28;20022;-79
2023/10/04 10:26:29;;;;;;;12.38;3.75;;;17.10;99.90;;;;;;5025509;28;20040;-75
2023/10/04 10:29:00;;;;;;;13.75;3.50;;;17.20;99.90;;;;;;5024988;28;20045;-78
2023/10/04 10:31:27;;;;;;;12.98;3.55;;;17.20;99.90;;;;;;5025359;28;20037;-76
2023/10/04 10:33:56;;;;;;;13.80;3.45;;;17.20;99.90;;;;;;5042793;28;20045;-71
2023/10/04 10:36:23;;;;;;;18.13;3.92;;;17.20;99.90;;;;;;5045016;28;20104;-74
2023/10/04 10:38:54;;;;;;;18.52;4.15;;;17.20;99.90;;;;;;5046574;28;20041;-77
2023/10/04 10:41:29;;;;;;;18.17;4.05;;;17.20;99.90;;;;;;5025180;28;20043;-76
2023/10/04 10:44:13;;;;;;;16.02;3.60;;;17.20;99.90;;;;;;5046272;28;20041;-72
2023/10/04 10:47:01;;;;;;;12.32;3.15;;;17.20;99.90;;;;;;5044754;28;20100;-70
2023/10/04 10:49:51;;;;;;;16.55;3.80;;;17.20;99.90;;;;;;5045860;28;20518;-74
2023/10/04 10:52:24;;;;;;;12.77;3.70;;;17.00;99.90;;;;;;5028430;28;20102;-71
2023/10/04 10:54:55;;;;;;;14.20;3.72;;;16.90;99.90;;;;;;5046450;28;20132;-75
2023/10/04 10:57:27;;;;;;;12.80;4.20;;;16.90;99.90;;;;;;5046535;28;20041;-74
2023/10/04 10:59:55;;;;;;;11.88;4.05;;;16.90;99.90;;;;;;5045984;28;20029;-76
2023/10/04 11:02:21;;;;;;;14.55;4.15;;;17.00;99.90;;;;;;5045985;28;20042;-71
2023/10/04 11:04:49;;;;;;;14.63;4.28;;;16.90;99.90;;;;;;5045804;28;21156;-74
2023/10/04 11:07:17;;;;;;;15.65;4.38;;;16.80;99.90;;;;;;5024506;28;20032;-75
2023/10/04 11:09:50;;;;;;;18.38;4.00;;;16.80;99.90;;;;;;5043246;28;20051;-77
2023/10/04 11:12:21;;;;;;;12.15;3.83;;;16.80;99.90;;;;;;5045930;28;20424;-75
2023/10/04 11:14:47;;;;;;;14.98;4.70;;;16.70;99.90;;;;;;5045918;28;20585;-72
2023/10/04 11:17:16;;;;;;;15.80;4.35;;;16.70;99.90;;;;;;5045585;28;20044;-78
2023/10/04 11:19:42;;;;;;;14.02;3.70;;;16.70;99.90;;;;;;5045452;28;20497;-77
2023/10/04 11:22:10;;;;;;;16.27;4.35;;;16.80;99.90;;;;;;5028324;28;20021;-75
2023/10/04 11:24:36;;;;;;;15.57;3.75;;;16.90;99.90;;;;;;5027536;28;20025;-77
2023/10/04 11:27:03;;;;;;;12.48;3.60;;;16.90;99.90;;;;;;5045831;28;20033;-79
2023/10/04 11:29:30;;;;;;;13.77;4.38;;;17.00;99.90;;;;;;5027399;28;20025;-75
2023/10/04 11:31:58;;;;;;;18.38;5.20;;;17.10;99.90;;;;;;5045887;28;20021;-75
2023/10/04 11:34:25;;;;;;;13.93;4.05;;;17.10;99.90;;;;;;5028055;28;20033;-69
2023/10/04 11:37:04;;;;;;;14.70;4.00;;;17.20;99.90;;;;;;5045583;28;20026;-72
2023/10/04 11:39:35;;;;;;;17.40;4.25;;;17.30;99.90;;;;;;5027878;28;20029;-76
2023/10/04 11:42:14;;;;;;;15.18;4.07;;;17.30;99.90;;;;;;5045792;28;20409;-74
2023/10/04 11:44:41;;;;;;;14.10;4.15;;;17.40;99.90;;;;;;5027156;28;20120;-72
2023/10/04 11:47:10;;;;;;;15.13;3.97;;;17.50;99.90;;;;;;5023291;28;20052;-76
2023/10/04 11:49:39;;;;;;;10.30;3.53;;;17.60;99.90;;;;;;5041968;28;20025;-75
2023/10/04 11:52:05;;;;;;;14.13;4.03;;;17.70;99.90;;;;;;5024034;28;20038;-74
2023/10/04 11:54:42;;;;;;;11.88;3.28;;;17.70;99.90;;;;;;5038401;28;20057;-71
2023/10/04 11:57:09;;;;;;;12.35;3.80;;;17.80;99.90;;;;;;5037612;28;20049;-74
2023/10/04 11:59:34;;;;;;;10.30;3.30;;;17.80;99.90;;;;;;5045639;28;20120;-75
2023/10/04 12:02:01;;;;;;;17.90;4.05;;;17.90;99.90;;;;;;5027433;28;20501;-75
2023/10/04 12:04:28;;;;;;;13.32;3.60;;;18.00;99.90;;;;;;5043330;28;20081;-75
2023/10/04 12:07:14;;;;;;;12.15;4.22;;;18.00;99.90;;;;;;5026237;28;20029;-75
2023/10/04 12:09:40;;;;;;;8.90;3.35;;;18.00;99.90;;;;;;5025896;28;20026;-75
2023/10/04 12:12:05;;;;;;;12.88;4.70;;;17.90;99.90;;;;;;5022313;28;20025;-77
2023/10/04 12:14:32;;;;;;;16.70;5.10;;;17.90;99.90;;;;;;5039799;28;20040;-77
2023/10/04 12:17:04;;;;;;;12.43;3.50;;;17.90;99.90;;;;;;5043839;28;20029;-78
2023/10/04 12:19:31;;;;;;;13.18;4.00;;;18.00;99.90;;;;;;5022674;28;20034;-70
2023/10/04 12:21:59;;;;;;;15.55;3.92;;;18.10;99.90;;;;;;5043685;28;20034;-73
2023/10/04 12:24:26;;;;;;;12.10;4.20;;;18.10;99.90;;;;;;5026948;28;20060;-77
2023/10/04 12:26:55;;;;;;;15.75;4.43;;;18.20;99.90;;;;;;5020908;28;20030;-74
2023/10/04 12:29:21;;;;;;;13.90;4.15;;;18.10;99.90;;;;;;5028302;28;20052;-77
2023/10/04 12:31:47;;;;;;;12.77;3.90;;;18.10;99.90;;;;;;5034662;28;20389;-75
2023/10/04 12:34:14;;;;;;;15.73;4.20;;;18.00;99.90;;;;;;5043477;28;20042;-74
2023/10/04 12:36:39;;;;;;;14.27;3.95;;;18.00;99.90;;;;;;5043559;28;20040;-74
2023/10/04 12:39:06;;;;;;;12.20;3.58;;;18.00;99.90;;;;;;5044470;28;20029;-76
2023/10/04 12:41:32;;;;;;;13.50;4.40;;;18.00;99.90;;;;;;5043764;28;20069;-78
2023/10/04 12:43:58;;;;;;;13.82;3.85;;;18.00;99.90;;;;;;5026784;28;20022;-74
2023/10/04 12:46:24;;;;;;;14.77;4.32;;;17.90;99.90;;;;;;5022437;28;20256;-76